Time;durP1;ratioP1;P1;durP2;ratioP2;P2;SDS_P1;SDS_P2;PMS_P1;PMS_P2;Temp;Humidity;BMP_temperature;BMP_pressure;BME280_temperature;BME280_humidity;BME280_pressure;Samples;Min_cycle;Max_cycle;Signal;HPM_P1;HPM_P2
2022/08/10 00:00:42;;;;;;;4.20;2.10;;;20.90;99.90;;;;;;5072392;28;20052;-59
2022/08/10 00:03:08;;;;;;;5.75;1.80;;;20.80;99.90;;;;;;5073866;28;20093;-60
2022/08/10 00:05:43;;;;;;;5.10;1.90;;;20.80;99.90;;;;;;5073548;28;20099;-59
2022/08/10 00:08:09;;;;;;;3.60;1.75;;;20.80;99.90;;;;;;5073869;28;20033;-60
2022/08/10 00:10:35;;;;;;;4.75;1.85;;;20.70;99.90;;;;;;5073797;28;20074;-59
2022/08/10 00:13:00;;;;;;;2.05;1.73;;;20.70;99.90;;;;;;5073507;28;20040;-59
2022/08/10 00:15:26;;;;;;;3.78;1.92;;;20.60;99.90;;;;;;5072288;28;20043;-59
2022/08/10 00:17:52;;;;;;;2.38;1.60;;;20.60;99.90;;;;;;5073555;28;20027;-59
2022/08/10 00:20:18;;;;;;;2.15;1.55;;;20.60;99.90;;;;;;5073280;28;20036;-59
2022/08/10 00:22:43;;;;;;;1.67;1.20;;;20.50;99.90;;;;;;5073290;28;20529;-60
2022/08/10 00:25:09;;;;;;;3.10;1.88;;;20.50;99.90;;;;;;5073242;28;20474;-59
2022/08/10 00:27:35;;;;;;;1.95;1.60;;;20.50;99.90;;;;;;5073044;28;20048;-59
2022/08/10 00:30:01;;;;;;;4.38;1.67;;;20.50;99.90;;;;;;5073419;28;20021;-59
2022/08/10 00:32:27;;;;;;;3.75;1.80;;;20.50;99.90;;;;;;5073340;28;20108;-59
2022/08/10 00:34:52;;;;;;;2.70;1.58;;;20.50;99.90;;;;;;5073089;28;20064;-59
2022/08/10 00:37:18;;;;;;;4.80;1.70;;;20.50;99.90;;;;;;5073115;28;20066;-58
2022/08/10 00:39:45;;;;;;;6.55;1.65;;;20.40;99.90;;;;;;5073137;28;20054;-58
2022/08/10 00:42:13;;;;;;;4.32;1.90;;;20.40;99.90;;;;;;5073111;28;20042;-58
2022/08/10 00:44:41;;;;;;;4.15;1.80;;;20.40;99.90;;;;;;5073019;28;20106;-58
2022/08/10 00:47:08;;;;;;;2.35;1.73;;;20.40;99.90;;;;;;5072772;28;20036;-58
2022/08/10 00:49:34;;;;;;;3.08;1.95;;;20.50;99.90;;;;;;5072973;28;20028;-58
2022/08/10 00:52:01;;;;;;;3.03;1.70;;;20.40;99.90;;;;;;5072790;28;20534;-58
2022/08/10 00:54:28;;;;;;;3.35;1.75;;;20.40;99.90;;;;;;5072827;28;20039;-59
2022/08/10 00:56:54;;;;;;;3.25;1.60;;;20.40;99.90;;;;;;5073063;28;20099;-59
2022/08/10 00:59:19;;;;;;;2.95;1.90;;;20.30;99.90;;;;;;5072829;28;20151;-60
2022/08/10 01:01:45;;;;;;;2.10;1.90;;;20.30;99.90;;;;;;5071485;28;20028;-59
2022/08/10 01:04:11;;;;;;;3.67;1.60;;;20.30;99.90;;;;;;5071161;28;20033;-59
2022/08/10 01:06:55;;;;;;;3.45;1.92;;;20.30;99.90;;;;;;5072394;28;20032;-60
2022/08/10 01:09:43;;;;;;;3.45;1.80;;;20.20;99.90;;;;;;5072560;28;20582;-59
2022/08/10 01:12:32;;;;;;;6.60;2.10;;;20.20;99.90;;;;;;5065858;28;20511;-59
2022/08/10 01:14:58;;;;;;;3.60;1.77;;;20.10;99.90;;;;;;5072580;28;20165;-59
2022/08/10 01:17:26;;;;;;;5.18;1.73;;;20.10;99.90;;;;;;5072532;28;20524;-60
2022/08/10 01:20:06;;;;;;;2.28;2.08;;;20.10;99.90;;;;;;5071421;28;20400;-61
2022/08/10 01:22:41;;;;;;;2.40;2.20;;;20.10;99.90;;;;;;5071182;28;20036;-60
2022/08/10 01:25:25;;;;;;;2.20;1.90;;;20.10;99.90;;;;;;5071031;28;20094;-60
2022/08/10 01:28:26;;;;;;;4.28;1.70;;;20.00;99.90;;;;;;5072589;28;20031;-59
2022/08/10 01:30:57;;;;;;;4.10;1.90;;;19.90;99.90;;;;;;5072319;28;20393;-59
2022/08/10 01:33:36;;;;;;;3.58;2.30;;;19.90;99.90;;;;;;5072239;28;20029;-59
2022/08/10 01:36:13;;;;;;;4.72;2.00;;;19.90;99.90;;;;;;5072090;28;20435;-60
2022/08/10 01:38:45;;;;;;;2.92;1.77;;;19.90;99.90;;;;;;5072037;28;20029;-60
2022/08/10 01:41:21;;;;;;;3.30;2.13;;;19.80;99.90;;;;;;5072345;28;20032;-60
2022/08/10 01:44:07;;;;;;;4.47;2.08;;;19.80;99.90;;;;;;5071825;28;20060;-60
2022/08/10 01:46:35;;;;;;;2.88;2.05;;;19.80;99.90;;;;;;5071757;28;20032;-59
2022/08/10 01:49:05;;;;;;;4.97;1.92;;;19.80;99.90;;;;;;5071812;28;20052;-58
2022/08/10 01:51:58;;;;;;;2.85;2.05;;;19.80;99.90;;;;;;5071770;28;20532;-58
2022/08/10 01:54:25;;;;;;;;;;;19.80;99.90;;;;;;5070367;28;20043;-58
2022/08/10 01:56:57;;;;;;;22.17;4.22;;;19.80;99.90;;;;;;5069812;28;19908;-59
2022/08/10 01:59:30;;;;;;;5.72;2.05;;;19.70;99.90;;;;;;5071589;28;20045;-59
2022/08/10 02:02:02;;;;;;;2.75;2.10;;;19.70;99.90;;;;;;5071842;28;20039;-60
2022/08/10 02:04:31;;;;;;;2.65;2.03;;;19.70;99.90;;;;;;5071571;28;20120;-59
2022/08/10 02:06:59;;;;;;;2.42;1.98;;;19.70;99.90;;;;;;5071351;28;20056;-59
2022/08/10 02:09:27;;;;;;;3.80;2.15;;;19.60;99.90;;;;;;5071353;28;20028;-59
2022/08/10 02:11:56;;;;;;;6.22;2.45;;;19.60;99.90;;;;;;5070334;28;20036;-59
2022/08/10 02:14:25;;;;;;;6.40;2.38;;;19.60;99.90;;;;;;5071397;28;20637;-59
2022/08/10 02:16:52;;;;;;;3.28;2.20;;;19.60;99.90;;;;;;5071462;28;20027;-60
2022/08/10 02:19:21;;;;;;;4.55;2.35;;;19.50;99.90;;;;;;5071174;28;20033;-59
2022/08/10 02:21:49;;;;;;;3.83;2.25;;;19.50;99.90;;;;;;5071554;28;20393;-59
2022/08/10 02:24:16;;;;;;;9.70;2.30;;;19.40;99.90;;;;;;5071176;28;20053;-60
2022/08/10 02:26:44;;;;;;;4.55;2.45;;;19.40;99.90;;;;;;5071126;28;20396;-59
2022/08/10 02:29:15;;;;;;;7.30;2.65;;;19.40;99.90;;;;;;5071628;28;20473;-59
2022/08/10 02:31:42;;;;;;;7.63;2.58;;;19.40;99.90;;;;;;5071021;28;20028;-59
2022/08/10 02:34:11;;;;;;;6.80;2.55;;;19.40;99.90;;;;;;5071221;28;20028;-59
2022/08/10 02:36:46;;;;;;;5.60;2.28;;;19.40;99.90;;;;;;5071059;28;20028;-59
2022/08/10 02:39:15;;;;;;;5.05;2.60;;;19.30;99.90;;;;;;5071280;28;20392;-59
2022/08/10 02:41:50;;;;;;;8.15;2.72;;;19.30;99.90;;;;;;5070934;28;20033;-60
2022/08/10 02:44:24;;;;;;;4.65;2.35;;;19.20;99.90;;;;;;5071123;28;20097;-59
2022/08/10 02:47:16;;;;;;;6.20;2.60;;;19.20;99.90;;;;;;5070853;28;20482;-59
2022/08/10 02:49:50;;;;;;;5.33;2.67;;;19.20;99.90;;;;;;5071069;28;20071;-59
2022/08/10 02:52:25;;;;;;;5.68;3.00;;;19.20;99.90;;;;;;5070896;28;20033;-59
2022/08/10 02:55:21;;;;;;;3.45;2.60;;;19.10;99.90;;;;;;5069464;28;20055;-59
2022/08/10 02:57:55;;;;;;;5.10;2.47;;;19.10;99.90;;;;;;5055707;28;20033;-59
2022/08/10 03:00:22;;;;;;;5.80;2.83;;;19.10;99.90;;;;;;5070694;28;20506;-59
2022/08/10 03:02:50;;;;;;;7.82;3.15;;;19.10;99.90;;;;;;5071027;28;20403;-57
2022/08/10 03:05:20;;;;;;;4.57;2.90;;;19.10;99.90;;;;;;5069197;28;20052;-57
2022/08/10 03:07:49;;;;;;;5.30;3.17;;;19.10;99.90;;;;;;5070825;28;20029;-57
2022/08/10 03:10:19;;;;;;;6.32;3.08;;;19.00;99.90;;;;;;5074543;28;20028;-58
2022/08/10 03:12:48;;;;;;;3.55;3.00;;;19.10;99.90;;;;;;5074769;28;20031;-60
2022/08/10 03:15:17;;;;;;;6.90;3.17;;;19.10;99.90;;;;;;5073419;28;20082;-59
2022/08/10 03:17:45;;;;;;;3.47;2.90;;;19.10;99.90;;;;;;5074549;28;20020;-58
2022/08/10 03:20:14;;;;;;;4.18;3.20;;;19.10;99.90;;;;;;5074791;28;20035;-57
2022/08/10 03:22:41;;;;;;;3.58;3.17;;;19.00;99.90;;;;;;5074507;28;20017;-57
2022/08/10 03:25:10;;;;;;;7.93;3.10;;;19.00;99.90;;;;;;5074304;28;20047;-58
2022/08/10 03:27:35;;;;;;;4.35;3.00;;;19.00;99.90;;;;;;5074347;28;20477;-58
2022/08/10 03:30:03;;;;;;;6.57;3.58;;;19.00;99.90;;;;;;5074439;28;20093;-58
2022/08/10 03:32:30;;;;;;;5.15;3.03;;;18.90;99.90;;;;;;5074309;28;20366;-58
2022/08/10 03:34:58;;;;;;;7.18;3.65;;;18.90;99.90;;;;;;5074111;28;20081;-58
2022/08/10 03:37:24;;;;;;;9.27;3.42;;;18.90;99.90;;;;;;5074262;28;20400;-59
2022/08/10 03:39:50;;;;;;;7.50;3.10;;;18.90;99.90;;;;;;5074343;28;20025;-59
2022/08/10 03:42:16;;;;;;;18.35;3.90;;;18.90;99.90;;;;;;5074357;28;20025;-58
2022/08/10 03:44:43;;;;;;;5.15;3.30;;;18.90;99.90;;;;;;5073898;28;20051;-58
2022/08/10 03:47:11;;;;;;;4.22;3.13;;;18.90;99.90;;;;;;5072714;28;20317;-58
2022/08/10 03:49:38;;;;;;;6.68;3.30;;;18.80;99.90;;;;;;5074017;28;20454;-58
2022/08/10 03:52:08;;;;;;;7.53;3.55;;;18.80;99.90;;;;;;5074016;28;20025;-58
2022/08/10 03:54:33;;;;;;;3.97;3.38;;;18.70;99.90;;;;;;5073899;28;20028;-58
2022/08/10 03:56:59;;;;;;;3.90;3.53;;;18.60;99.90;;;;;;5074133;28;20027;-59
2022/08/10 03:59:25;;;;;;;8.32;3.53;;;18.60;99.90;;;;;;5074052;28;20105;-59
2022/08/10 04:01:51;;;;;;;10.23;3.35;;;18.70;99.90;;;;;;5073871;28;20413;-59
2022/08/10 04:04:18;;;;;;;7.03;3.75;;;18.60;99.90;;;;;;5073597;28;20024;-59
2022/08/10 04:06:44;;;;;;;5.85;3.35;;;18.60;99.90;;;;;;5074023;28;20096;-59
2022/08/10 04:09:10;;;;;;;5.65;3.47;;;18.60;99.90;;;;;;5073836;28;20028;-59
2022/08/10 04:11:36;;;;;;;6.95;3.95;;;18.50;99.90;;;;;;5073640;28;20115;-59
2022/08/10 04:14:03;;;;;;;5.18;3.55;;;18.50;99.90;;;;;;5074176;28;20029;-59
2022/08/10 04:16:28;;;;;;;6.65;3.60;;;18.50;99.90;;;;;;5073658;28;20032;-59
2022/08/10 04:18:54;;;;;;;6.68;3.70;;;18.50;99.90;;;;;;5071923;28;20036;-59
2022/08/10 04:21:25;;;;;;;5.72;3.95;;;18.50;99.90;;;;;;5073770;28;20033;-60
2022/08/10 04:23:52;;;;;;;4.60;3.50;;;18.50;99.90;;;;;;5073449;28;20041;-59
2022/08/10 04:26:19;;;;;;;7.03;3.78;;;18.50;99.90;;;;;;5073216;28;20043;-59
2022/08/10 04:28:44;;;;;;;5.38;4.18;;;18.50;99.90;;;;;;5073308;28;20081;-59
2022/08/10 04:31:13;;;;;;;4.30;3.90;;;18.40;99.90;;;;;;5073295;28;20028;-59
2022/08/10 04:33:43;;;;;;;5.15;4.03;;;18.40;99.90;;;;;;5073255;28;20090;-59
2022/08/10 04:36:11;;;;;;;7.93;4.03;;;18.30;99.90;;;;;;5073311;28;20033;-58
2022/08/10 04:38:37;;;;;;;7.32;4.20;;;18.30;99.90;;;;;;5073434;28;20108;-58
2022/08/10 04:41:03;;;;;;;12.13;4.40;;;18.30;99.90;;;;;;5072996;28;20032;-58
2022/08/10 04:43:29;;;;;;;8.13;4.53;;;18.30;99.90;;;;;;5073129;28;20039;-59
2022/08/10 04:45:54;;;;;;;5.05;4.10;;;18.30;99.90;;;;;;5073030;28;20107;-59
2022/08/10 04:48:23;;;;;;;17.98;5.05;;;18.30;99.90;;;;;;5073070;28;20445;-59
2022/08/10 04:50:49;;;;;;;9.10;4.20;;;18.20;99.90;;;;;;5072002;28;20032;-59
2022/08/10 04:53:14;;;;;;;9.93;4.38;;;18.20;99.90;;;;;;5072716;28;20069;-59
2022/08/10 04:55:40;;;;;;;4.80;4.20;;;18.30;99.90;;;;;;5072849;28;20028;-59
2022/08/10 04:58:05;;;;;;;10.75;4.20;;;18.20;99.90;;;;;;5072863;28;20074;-59
2022/08/10 05:00:31;;;;;;;7.20;4.40;;;18.20;99.90;;;;;;5071188;28;20056;-59
2022/08/10 05:02:57;;;;;;;8.52;4.38;;;18.20;99.90;;;;;;5072618;28;20036;-59
2022/08/10 05:05:22;;;;;;;12.38;5.03;;;18.20;99.90;;;;;;5072739;28;20029;-59
2022/08/10 05:07:48;;;;;;;5.47;3.90;;;18.30;99.90;;;;;;5072350;28;20024;-59
2022/08/10 05:10:13;;;;;;;18.35;4.80;;;18.30;99.90;;;;;;5054908;28;20028;-59
2022/08/10 05:12:39;;;;;;;8.02;4.60;;;18.30;99.90;;;;;;5071450;28;20031;-59
2022/08/10 05:15:10;;;;;;;10.38;5.10;;;18.30;99.90;;;;;;5072264;28;20021;-59
2022/08/10 05:17:37;;;;;;;8.75;4.40;;;18.40;99.90;;;;;;5072259;28;20031;-57
2022/08/10 05:20:08;;;;;;;12.35;5.25;;;18.30;99.90;;;;;;5072404;28;20029;-57
2022/08/10 05:22:37;;;;;;;10.60;4.83;;;18.40;99.90;;;;;;5072135;28;20025;-57
2022/08/10 05:25:05;;;;;;;11.07;4.72;;;18.40;99.90;;;;;;5072278;28;20397;-57
2022/08/10 05:27:30;;;;;;;9.40;4.57;;;18.40;99.90;;;;;;5072289;28;20036;-57
2022/08/10 05:29:56;;;;;;;25.80;5.78;;;18.30;99.90;;;;;;5071978;28;20031;-57
2022/08/10 05:32:22;;;;;;;13.48;5.03;;;18.40;99.90;;;;;;5069971;28;20359;-57
2022/08/10 05:34:47;;;;;;;11.48;4.78;;;18.50;99.90;;;;;;5072131;28;20021;-57
2022/08/10 05:37:14;;;;;;;5.93;4.53;;;18.50;99.90;;;;;;5071641;28;20020;-57
2022/08/10 05:39:42;;;;;;;14.07;5.28;;;18.60;99.90;;;;;;5072622;28;20050;-57
2022/08/10 05:42:08;;;;;;;7.43;4.60;;;18.70;99.90;;;;;;5071934;28;20029;-57
2022/08/10 05:44:34;;;;;;;11.95;5.10;;;18.60;99.90;;;;;;5071912;28;20040;-57
2022/08/10 05:46:59;;;;;;;7.05;4.40;;;18.80;99.90;;;;;;5071486;28;20398;-57
2022/08/10 05:49:25;;;;;;;8.85;5.28;;;18.70;99.90;;;;;;5071708;28;20033;-57
2022/08/10 05:51:51;;;;;;;6.90;4.97;;;18.70;99.90;;;;;;5071616;28;20028;-57
2022/08/10 05:54:17;;;;;;;21.45;5.97;;;18.80;99.90;;;;;;5071375;28;20059;-57
2022/08/10 05:56:45;;;;;;;14.15;5.68;;;18.80;99.90;;;;;;5071473;28;20548;-57
2022/08/10 05:59:12;;;;;;;10.68;5.63;;;18.80;99.90;;;;;;5070392;28;20036;-57
2022/08/10 06:01:42;;;;;;;9.98;5.47;;;18.80;99.90;;;;;;5071525;28;20158;-57
2022/08/10 06:04:10;;;;;;;17.30;6.18;;;18.80;99.90;;;;;;5071411;28;20028;-57
2022/08/10 06:06:37;;;;;;;12.50;5.50;;;18.80;99.90;;;;;;5071342;28;20110;-60
2022/08/10 06:09:05;;;;;;;18.35;5.97;;;18.90;99.90;;;;;;5071806;28;20033;-59
2022/08/10 06:11:32;;;;;;;12.27;6.25;;;19.00;99.90;;;;;;5071477;28;20077;-59
2022/08/10 06:16:44;;;;;;;12.35;6.32;;;19.20;99.90;;;;;;5071276;28;20102;-59
2022/08/10 06:19:11;;;;;;;9.05;5.78;;;19.30;99.90;;;;;;5071915;28;20491;-59
2022/08/10 06:21:37;;;;;;;12.88;5.85;;;19.30;99.90;;;;;;5071040;28;20032;-59
2022/08/10 06:24:06;;;;;;;11.07;5.65;;;19.30;99.90;;;;;;5071019;28;20024;-60
2022/08/10 06:26:31;;;;;;;7.30;5.53;;;19.40;99.90;;;;;;5071231;28;20048;-59
2022/08/10 06:29:06;;;;;;;24.83;7.15;;;19.50;99.90;;;;;;5071578;28;20024;-60
2022/08/10 06:31:38;;;;;;;14.68;5.80;;;19.50;99.90;;;;;;5070857;28;20032;-59
2022/08/10 06:34:06;;;;;;;13.45;6.55;;;19.70;99.90;;;;;;5053648;28;20021;-58
2022/08/10 06:36:33;;;;;;;9.80;5.55;;;20.00;99.90;;;;;;5070703;28;20469;-59
2022/08/10 06:38:59;;;;;;;13.50;5.90;;;20.00;99.90;;;;;;5071078;28;20423;-59
2022/08/10 06:41:29;;;;;;;17.63;6.43;;;19.90;99.90;;;;;;5070907;28;20025;-58
2022/08/10 06:44:04;;;;;;;11.93;6.10;;;20.00;99.90;;;;;;5069626;28;20020;-57
2022/08/10 06:46:34;;;;;;;19.77;6.32;;;20.00;99.90;;;;;;5069812;28;20033;-57
2022/08/10 06:49:03;;;;;;;15.18;6.47;;;20.10;99.90;;;;;;5070933;28;20021;-58
2022/08/10 06:51:34;;;;;;;13.57;6.22;;;20.30;99.90;;;;;;5069721;28;20029;-59
2022/08/10 06:54:09;;;;;;;9.75;5.38;;;20.20;99.90;;;;;;5053174;28;20031;-60
2022/08/10 06:56:40;;;;;;;9.52;6.43;;;20.30;99.90;;;;;;5071110;28;20032;-58
2022/08/10 06:59:14;;;;;;;9.82;5.70;;;20.30;99.90;;;;;;5070972;28;20040;-59
2022/08/10 07:01:42;;;;;;;9.15;6.00;;;20.50;99.90;;;;;;5070730;28;20397;-58
2022/08/10 07:04:14;;;;;;;18.85;6.75;;;20.60;99.90;;;;;;5070927;28;20531;-59
2022/08/10 07:06:44;;;;;;;11.55;6.70;;;20.70;99.90;;;;;;5070705;28;20124;-61
2022/08/10 07:09:15;;;;;;;12.05;6.45;;;20.80;99.90;;;;;;5070566;28;20287;-59
2022/08/10 07:11:44;;;;;;;7.95;5.95;;;20.90;99.90;;;;;;5069343;28;20048;-59
2022/08/10 07:14:12;;;;;;;8.30;5.65;;;21.50;99.90;;;;;;5070506;28;20025;-59
2022/08/10 07:16:41;;;;;;;13.45;5.70;;;22.80;99.90;;;;;;5070625;28;20025;-59
2022/08/10 07:19:09;;;;;;;9.90;5.43;;;24.10;99.90;;;;;;5070742;28;20077;-59
2022/08/10 07:21:41;;;;;;;9.00;5.32;;;24.90;99.90;;;;;;5069022;28;20409;-59
2022/08/10 07:24:10;;;;;;;6.57;5.20;;;25.60;99.90;;;;;;5070676;28;20028;-59
2022/08/10 07:26:38;;;;;;;9.05;4.95;;;26.10;99.90;;;;;;5070601;28;20037;-60
2022/08/10 07:29:05;;;;;;;9.23;4.65;;;26.50;99.90;;;;;;5070655;28;20039;-60
2022/08/10 07:31:31;;;;;;;8.15;4.57;;;27.20;99.90;;;;;;5070662;28;20037;-61
2022/08/10 07:33:58;;;;;;;13.02;5.15;;;27.60;99.50;;;;;;5071019;28;20024;-62
2022/08/10 07:36:26;;;;;;;5.88;4.57;;;28.70;97.00;;;;;;5070257;28;20033;-61
2022/08/10 07:38:54;;;;;;;8.23;4.82;;;28.90;95.20;;;;;;5070999;28;20028;-61
2022/08/10 07:41:22;;;;;;;9.73;4.78;;;29.00;94.80;;;;;;5070889;28;20138;-61
2022/08/10 07:43:50;;;;;;;5.75;4.50;;;28.80;94.60;;;;;;5070949;28;20473;-61
2022/08/10 07:46:20;;;;;;;11.95;5.18;;;29.30;93.90;;;;;;5070239;28;20562;-61
2022/08/10 07:48:49;;;;;;;21.85;5.80;;;29.80;92.70;;;;;;5070362;28;20063;-61
2022/08/10 07:51:18;;;;;;;9.30;5.22;;;30.10;91.40;;;;;;5070304;28;20028;-62
2022/08/10 07:53:49;;;;;;;15.13;5.10;;;29.80;92.00;;;;;;5070202;28;20477;-61
2022/08/10 07:56:17;;;;;;;8.57;4.85;;;29.80;92.20;;;;;;5073822;28;20078;-61
2022/08/10 07:58:52;;;;;;;11.95;4.95;;;29.70;91.70;;;;;;5073908;28;20060;-61
2022/08/10 08:01:22;;;;;;;8.23;5.22;;;30.10;91.40;;;;;;5074002;28;20039;-61
2022/08/10 08:03:48;;;;;;;7.30;5.00;;;30.20;90.30;;;;;;5072501;28;20028;-61
2022/08/10 08:06:15;;;;;;;8.18;5.00;;;30.20;90.60;;;;;;5074320;28;20099;-61
2022/08/10 08:08:43;;;;;;;12.10;4.47;;;30.10;90.70;;;;;;5073775;28;20032;-63
2022/08/10 08:11:10;;;;;;;12.63;4.70;;;29.90;90.80;;;;;;5073525;28;20024;-61
2022/08/10 08:13:37;;;;;;;11.43;4.60;;;30.20;90.50;;;;;;5073804;28;20107;-61
2022/08/10 08:16:04;;;;;;;5.70;4.00;;;30.30;90.20;;;;;;5073592;28;20542;-61
2022/08/10 08:18:34;;;;;;;7.35;4.07;;;30.70;89.70;;;;;;5073797;28;20512;-61
2022/08/10 08:21:01;;;;;;;5.28;3.97;;;31.20;87.70;;;;;;5073969;28;20389;-62
2022/08/10 08:23:28;;;;;;;8.98;3.88;;;31.60;86.00;;;;;;5073729;28;20146;-62
2022/08/10 08:25:55;;;;;;;6.75;3.63;;;31.20;86.50;;;;;;5073248;28;20043;-61
2022/08/10 08:28:23;;;;;;;9.48;4.07;;;31.90;83.80;;;;;;5073471;28;20035;-60
2022/08/10 08:30:49;;;;;;;5.93;4.22;;;31.80;83.00;;;;;;5073807;28;20033;-61
2022/08/10 08:33:16;;;;;;;11.75;4.55;;;32.10;81.60;;;;;;5073100;28;20488;-60
2022/08/10 08:35:44;;;;;;;11.00;4.60;;;31.90;82.20;;;;;;5073383;28;20024;-60
2022/08/10 08:38:11;;;;;;;9.18;4.05;;;31.90;81.30;;;;;;5072331;28;20477;-60
2022/08/10 08:40:39;;;;;;;16.08;4.53;;;31.50;82.20;;;;;;5073326;28;20028;-61
2022/08/10 08:43:23;;;;;;;6.47;4.05;;;31.80;81.80;;;;;;5073374;28;20030;-62
2022/08/10 08:46:31;;;;;;;6.13;3.78;;;31.60;82.00;;;;;;5073116;28;20027;-61
2022/08/10 08:49:24;;;;;;;6.60;3.67;;;31.30;83.10;;;;;;5074026;28;20370;-61
2022/08/10 08:52:12;;;;;;;10.05;4.85;;;32.60;79.40;;;;;;5072836;28;20504;-60
2022/08/10 08:54:56;;;;;;;7.47;4.22;;;32.80;77.60;;;;;;5072608;28;20032;-61
2022/08/10 08:57:36;;;;;;;10.88;3.78;;;32.60;78.60;;;;;;5072684;28;20021;-61
2022/08/10 09:00:08;;;;;;;7.70;3.80;;;32.90;77.50;;;;;;5073226;28;20053;-61
2022/08/10 09:03:12;;;;;;;9.27;3.97;;;32.90;76.90;;;;;;5071342;28;20027;-62
2022/08/10 09:06:02;;;;;;;7.90;3.60;;;33.60;75.30;;;;;;5070877;28;20028;-61
2022/08/10 09:09:05;;;;;;;8.73;3.60;;;33.50;73.80;;;;;;5072943;28;20040;-62
2022/08/10 09:11:53;;;;;;;11.90;3.90;;;33.50;74.70;;;;;;5072355;28;20036;-61
2022/08/10 09:14:29;;;;;;;9.32;3.60;;;33.50;73.40;;;;;;5072627;28;20048;-62
2022/08/10 09:17:06;;;;;;;8.85;4.13;;;33.70;73.60;;;;;;5072259;28;20016;-61
2022/08/10 09:19:56;;;;;;;5.63;3.65;;;33.50;73.90;;;;;;5073207;28;20050;-62
2022/08/10 09:22:43;;;;;;;9.27;3.50;;;33.50;73.70;;;;;;5072333;28;20481;-62
2022/08/10 09:25:22;;;;;;;6.75;3.20;;;33.60;73.00;;;;;;5072157;28;20519;-62
2022/08/10 09:28:08;;;;;;;8.57;3.80;;;34.20;71.40;;;;;;5072013;28;20025;-61
2022/08/10 09:30:50;;;;;;;7.93;3.95;;;34.00;70.60;;;;;;5071948;28;20508;-62
2022/08/10 09:33:24;;;;;;;12.25;3.60;;;33.50;72.40;;;;;;5071985;28;20033;-62
2022/08/10 09:36:09;;;;;;;7.85;3.83;;;33.80;72.70;;;;;;5072435;28;20170;-61
2022/08/10 09:38:56;;;;;;;6.65;4.00;;;33.50;69.60;;;;;;5072444;28;20508;-59
2022/08/10 09:41:35;;;;;;;8.82;3.50;;;33.70;69.80;;;;;;5072346;28;20041;-62
2022/08/10 09:44:12;;;;;;;9.98;3.40;;;33.50;71.20;;;;;;5072149;28;20052;-61
2022/08/10 09:47:06;;;;;;;11.60;3.70;;;34.10;70.20;;;;;;5070746;28;20036;-62
2022/08/10 09:49:43;;;;;;;14.18;3.58;;;34.20;69.80;;;;;;5070915;28;20050;-61
2022/08/10 09:52:48;;;;;;;6.22;2.67;;;34.60;67.20;;;;;;5071746;28;20052;-61
2022/08/10 09:55:27;;;;;;;9.68;3.40;;;34.80;67.30;;;;;;5069767;28;20108;-62
2022/08/10 09:57:59;;;;;;;12.23;3.33;;;34.90;66.00;;;;;;5071742;28;20023;-62
2022/08/10 10:00:38;;;;;;;7.38;2.80;;;34.90;65.10;;;;;;5071558;28;20040;-62
2022/08/10 10:03:32;;;;;;;6.35;3.20;;;35.10;65.60;;;;;;5071859;28;20497;-61
2022/08/10 10:06:00;;;;;;;21.27;4.18;;;35.00;64.50;;;;;;5071903;28;20032;-62
2022/08/10 10:08:31;;;;;;;5.85;2.42;;;35.10;63.80;;;;;;5071888;28;20064;-62
2022/08/10 10:11:18;;;;;;;6.47;3.13;;;34.70;64.70;;;;;;5071787;28;20500;-62
2022/08/10 10:14:15;;;;;;;24.73;4.13;;;34.90;63.00;;;;;;5072223;28;20104;-62
2022/08/10 10:17:02;;;;;;;5.68;2.88;;;35.30;62.20;;;;;;5070102;28;20397;-61
2022/08/10 10:19:52;;;;;;;3.28;2.63;;;35.20;63.10;;;;;;5064247;28;20043;-61
2022/08/10 10:22:30;;;;;;;6.45;2.60;;;34.90;63.00;;;;;;5069880;28;20029;-61
2022/08/10 10:25:01;;;;;;;4.32;2.55;;;34.80;62.50;;;;;;5071133;28;20037;-61
2022/08/10 10:27:58;;;;;;;6.40;2.70;;;35.10;62.10;;;;;;5071080;28;20052;-61
2022/08/10 10:30:29;;;;;;;5.15;2.70;;;34.80;61.50;;;;;;5047871;28;20053;-61
2022/08/10 10:33:01;;;;;;;385.42;28.10;;;34.80;61.30;;;;;;5071523;28;20025;-61
2022/08/10 10:35:51;;;;;;;29.23;4.03;;;34.90;60.40;;;;;;5071127;28;20046;-62
2022/08/10 10:38:20;;;;;;;10.40;3.40;;;34.30;61.90;;;;;;5071449;28;20021;-61
2022/08/10 10:41:00;;;;;;;5.82;2.88;;;34.50;63.00;;;;;;5069786;28;20028;-61
2022/08/10 10:43:57;;;;;;;7.38;2.60;;;34.20;63.50;;;;;;5071075;28;20020;-61
2022/08/10 10:47:08;;;;;;;5.15;2.53;;;34.10;63.80;;;;;;5071017;28;20029;-62
2022/08/10 10:50:14;;;;;;;6.72;2.60;;;35.00;61.80;;;;;;5071191;28;20332;-62
2022/08/10 10:52:55;;;;;;;5.15;2.28;;;35.50;60.70;;;;;;5071040;28;20063;-62
2022/08/10 10:55:37;;;;;;;3.08;2.22;;;35.80;60.10;;;;;;5070805;28;20363;-62
2022/08/10 10:58:29;;;;;;;6.75;2.42;;;35.80;58.40;;;;;;5070998;28;20043;-62
2022/08/10 11:00:54;;;;;;;9.38;2.75;;;36.30;58.20;;;;;;5070741;28;20063;-62
2022/08/10 11:03:34;;;;;;;6.53;2.42;;;36.00;57.40;;;;;;5070775;28;20469;-62
2022/08/10 11:06:06;;;;;;;4.47;2.30;;;35.50;59.30;;;;;;5070828;28;20020;-61
2022/08/10 11:08:37;;;;;;;13.82;2.40;;;35.70;58.80;;;;;;5071169;28;20078;-61
2022/08/10 11:11:09;;;;;;;29.73;3.65;;;36.00;59.70;;;;;;5070962;28;20028;-61
2022/08/10 11:13:53;;;;;;;5.68;2.60;;;36.30;57.90;;;;;;5069263;28;20029;-61
2022/08/10 11:16:46;;;;;;;6.07;2.45;;;35.80;58.60;;;;;;5070815;28;20047;-61
2022/08/10 11:19:19;;;;;;;6.50;2.72;;;35.70;57.90;;;;;;5071232;28;20032;-62
2022/08/10 11:22:04;;;;;;;6.72;2.05;;;35.40;58.10;;;;;;5070990;28;20047;-62
2022/08/10 11:24:54;;;;;;;6.43;2.33;;;35.10;58.00;;;;;;5070574;28;20385;-62
2022/08/10 11:28:04;;;;;;;8.80;2.55;;;35.40;57.70;;;;;;5070483;28;20024;-61
2022/08/10 11:30:46;;;;;;;7.00;2.33;;;35.50;58.10;;;;;;5072894;28;20044;-61
2022/08/10 11:33:18;;;;;;;6.25;2.10;;;35.20;57.60;;;;;;5070859;28;20098;-61
2022/08/10 11:35:52;;;;;;;3.15;1.92;;;34.70;57.20;;;;;;5074198;28;20025;-62
2022/08/10 11:38:36;;;;;;;10.20;2.90;;;34.20;57.70;;;;;;5074582;28;20031;-62
2022/08/10 11:41:16;;;;;;;6.15;2.08;;;35.20;57.60;;;;;;5074116;28;20040;-62
2022/08/10 11:43:48;;;;;;;7.32;3.00;;;35.40;56.00;;;;;;5073953;28;20033;-63
2022/08/10 11:46:33;;;;;;;8.80;2.55;;;36.00;55.00;;;;;;5074099;28;20103;-62
2022/08/10 11:49:08;;;;;;;3.63;2.13;;;36.50;54.30;;;;;;5074324;28;20310;-62
2022/08/10 11:51:47;;;;;;;8.55;2.20;;;36.80;53.70;;;;;;5073863;28;20055;-62
2022/08/10 11:54:18;;;;;;;3.55;2.17;;;37.10;52.90;;;;;;5073909;28;20021;-62
2022/08/10 11:56:47;;;;;;;13.67;2.30;;;37.30;52.10;;;;;;5073956;28;20031;-62
2022/08/10 12:02:03;;;;;;;5.95;2.20;;;35.30;52.70;;;;;;5074009;28;20507;-62
2022/08/10 12:04:31;;;;;;;8.23;2.40;;;35.50;53.80;;;;;;5073978;28;20424;-62
2022/08/10 12:06:59;;;;;;;73.97;6.28;;;36.00;53.30;;;;;;5073801;28;20478;-62
2022/08/10 12:09:26;;;;;;;10.23;2.42;;;36.70;51.50;;;;;;5074083;28;20102;-62
2022/08/10 12:11:54;;;;;;;5.45;1.75;;;36.70;51.40;;;;;;5073766;28;20029;-62
2022/08/10 12:14:35;;;;;;;5.95;2.05;;;36.80;50.80;;;;;;5073943;28;20029;-62
2022/08/10 12:17:06;;;;;;;5.13;2.05;;;36.40;51.00;;;;;;5073605;28;20017;-61
2022/08/10 12:19:48;;;;;;;4.93;1.98;;;36.40;50.80;;;;;;5074178;28;20033;-61
2022/08/10 12:22:22;;;;;;;7.30;1.75;;;37.10;50.30;;;;;;5073448;28;20090;-61
2022/08/10 12:24:54;;;;;;;4.72;1.90;;;37.40;50.50;;;;;;5072446;28;20037;-61
2022/08/10 12:27:46;;;;;;;7.65;1.90;;;37.80;50.00;;;;;;5073492;28;20032;-62
2022/08/10 12:30:15;;;;;;;12.70;2.60;;;38.00;49.30;;;;;;5073387;28;20120;-61
2022/08/10 12:33:13;;;;;;;3.13;1.90;;;37.70;49.60;;;;;;5073420;28;20045;-61
2022/08/10 12:35:50;;;;;;;2.63;1.70;;;37.80;49.60;;;;;;5073325;28;20056;-62
2022/08/10 12:38:33;;;;;;;4.82;2.10;;;38.20;48.10;;;;;;5073594;28;20040;-61
2022/08/10 12:41:03;;;;;;;9.32;2.40;;;38.40;46.60;;;;;;5072650;28;20105;-62
2022/08/10 12:43:40;;;;;;;4.00;1.80;;;37.30;48.10;;;;;;5073384;28;20481;-61
2022/08/10 12:46:16;;;;;;;5.43;1.75;;;37.60;48.20;;;;;;5073121;28;20047;-62
2022/08/10 12:49:03;;;;;;;3.90;2.00;;;37.80;48.30;;;;;;5073263;28;20032;-62
2022/08/10 12:51:32;;;;;;;4.80;1.60;;;37.20;48.80;;;;;;5072945;28;20085;-62
2022/08/10 12:54:02;;;;;;;8.18;2.00;;;36.90;49.00;;;;;;5072966;28;20073;-63
2022/08/10 12:56:35;;;;;;;5.25;1.90;;;36.80;50.40;;;;;;5072840;28;20039;-62
2022/08/10 12:59:04;;;;;;;4.90;1.67;;;36.80;48.50;;;;;;5073120;28;20070;-62
2022/08/10 13:01:32;;;;;;;3.42;1.88;;;36.80;48.70;;;;;;5073090;28;20028;-62
2022/08/10 13:04:01;;;;;;;9.50;2.10;;;37.00;48.80;;;;;;5072819;28;20055;-62
2022/08/10 13:06:39;;;;;;;4.30;2.20;;;37.40;48.40;;;;;;5072729;28;20031;-62
2022/08/10 13:09:08;;;;;;;4.50;2.05;;;37.70;47.90;;;;;;5072745;28;20036;-62
2022/08/10 13:11:48;;;;;;;4.50;2.00;;;37.50;48.30;;;;;;5072410;28;20397;-62
2022/08/10 13:14:33;;;;;;;6.45;2.00;;;37.70;47.70;;;;;;5072538;28;20410;-62
2022/08/10 13:17:01;;;;;;;15.30;2.45;;;38.10;47.30;;;;;;5072446;28;20104;-62
2022/08/10 13:19:32;;;;;;;5.65;2.10;;;37.90;48.00;;;;;;5072796;28;20032;-62